Gardner, KS (66030)

5:50 AM CDT on August 24, 2016 (GMT -0500)
Thunderbird Meadows | | Change Station

Elev 1047 ft 38.82 °N, 94.93 °W | Updated 34 seconds ago

Overcast
Overcast
69.8 °F
Feels Like 69.8 °F
N
5.8
Wind Variable Wind from ESE

Today
High -- | Low -- °F
--% Chance of Precip.
Yesterday
High -- | Low -- °F
Precip. -- in
Pressure 30.01 in
Visibility 10.0 miles
Clouds Mostly Cloudy 2000 ft
Overcast 2500 ft
Dew Point 65 °F
Humidity 86%
Rainfall 0.15 in
Snow Depth Not available.
6:42 AM 8:01 PM
Waning Gibbous, 58% visible
SPECI KIXD 241003Z AUTO 36012KT 10SM BKN020 OVC025 22/21 A3001 RMK AO2 T02220211
Pressure 30.01 in
Visibility 10.0 miles
Clouds Mostly Cloudy 2000 ft
Overcast 2500 ft
Dew Point 65 °F
Humidity 86%
Rainfall 0.15 in
Snow Depth Not available.
6:42 AM 8:01 PM
Waning Gibbous, 58% visible
SPECI KIXD 241003Z AUTO 36012KT 10SM BKN020 OVC025 22/21 A3001 RMK AO2 T02220211

10-Day Weather Forecast

Almanac

Astronomy

Aug. 24, 2016 Rise Set
Actual Time
Civil Twilight
Nautical Twilight
Astronomical Twilight
Moon
Length of Visible Light
Length of Day
Tomorrow will be .
, % of the Moon is Illuminated

Today's Extremes

State Highs State Lows

Community

WunderPhotos

Upload Photos

1,934,562 photos uploaded!

WunderBlog® & News

Nearby

Air Quality

  Air Quality AQ Index Pollutant
Not available.

Snow Depth

Station Depth Elevation

Earthquake Activity

City Distance Mag. Time & Date
Minimum magnitude displayed is 2.5.

Coastal Water Temperatures

Place Temperature

Stations

Nearby Weather Stations

Station Location Temp. Windchill Dew Point Humidity Wind Precip. Elev Updated Type
                   

Watches & Warnings

There are currently no watches in effect.